createdAt,value
2022-12-12T00:01:35.148Z,30.77
2022-12-12T00:04:02.327Z,31.17
2022-12-12T00:06:29.975Z,30.05
2022-12-12T00:08:56.809Z,31.45
2022-12-12T00:11:25.308Z,29.90
2022-12-12T00:13:52.961Z,30.77
2022-12-12T00:16:21.525Z,31.27
2022-12-12T00:18:48.304Z,28.88
2022-12-12T00:21:22.634Z,30.05
2022-12-12T00:23:49.378Z,32.85
2022-12-12T00:26:22.893Z,31.13
2022-12-12T00:28:50.559Z,32.55
2022-12-12T00:31:18.480Z,30.85
2022-12-12T00:33:47.864Z,31.73
2022-12-12T00:36:15.765Z,30.65
2022-12-12T00:38:42.438Z,32.90
2022-12-12T00:41:09.974Z,32.75
2022-12-12T00:43:37.663Z,33.08
2022-12-12T00:46:04.584Z,31.85
2022-12-12T00:48:32.248Z,31.77
2022-12-12T00:51:05.697Z,30.90
2022-12-12T00:53:32.640Z,32.08
2022-12-12T00:55:59.720Z,32.63
2022-12-12T00:58:27.440Z,31.50
2022-12-12T01:00:54.634Z,30.42
2022-12-12T01:03:22.358Z,31.25
2022-12-12T01:05:49.182Z,30.15
2022-12-12T01:08:16.642Z,29.10
2022-12-12T01:10:43.278Z,29.13
2022-12-12T01:13:10.665Z,31.15
2022-12-12T01:15:37.256Z,30.98
2022-12-12T01:18:04.566Z,29.85
2022-12-12T01:20:31.373Z,29.45
2022-12-12T01:22:58.664Z,32.03
2022-12-12T01:25:25.287Z,32.00
2022-12-12T01:27:52.633Z,30.52
2022-12-12T01:30:21.737Z,30.13
2022-12-12T01:32:49.394Z,30.38
2022-12-12T01:35:16.125Z,30.80
2022-12-12T01:37:43.635Z,31.95
2022-12-12T01:40:18.118Z,30.88
2022-12-12T01:42:45.841Z,32.88
2022-12-12T01:45:50.119Z,33.80
2022-12-12T01:48:18.642Z,33.78
2022-12-12T01:50:45.623Z,32.40
2022-12-12T01:53:15.798Z,32.65
2022-12-12T01:55:42.762Z,32.65
2022-12-12T01:58:09.789Z,32.78
2022-12-12T02:00:36.507Z,32.22
2022-12-12T02:03:03.955Z,31.98
2022-12-12T02:05:43.823Z,34.08
2022-12-12T02:08:13.139Z,33.03
2022-12-12T02:10:40.019Z,34.35
2022-12-12T02:13:11.913Z,33.55
2022-12-12T02:16:12.652Z,34.00
2022-12-12T02:19:07.584Z,34.70
2022-12-12T02:21:35.571Z,33.63
2022-12-12T02:24:26.615Z,33.83
2022-12-12T02:27:17.784Z,34.65
2022-12-12T02:29:59.653Z,34.55
2022-12-12T02:32:45.548Z,25.65
2022-12-12T02:35:31.424Z,35.25
2022-12-12T02:38:29.597Z,34.33
2022-12-12T02:41:08.184Z,34.30
2022-12-12T02:43:42.444Z,34.38
2022-12-12T02:46:19.953Z,34.45
2022-12-12T02:49:00.818Z,34.08
2022-12-12T02:51:29.438Z,33.03
2022-12-12T02:53:59.505Z,35.50
2022-12-12T02:56:48.881Z,34.28
2022-12-12T02:59:37.762Z,32.85
2022-12-12T03:02:14.031Z,34.90
2022-12-12T03:05:23.869Z,33.63
2022-12-12T03:07:57.640Z,34.35
2022-12-12T03:10:50.685Z,36.00
2022-12-12T03:13:28.306Z,35.47
2022-12-12T03:16:16.641Z,35.08
2022-12-12T03:19:01.681Z,32.95
2022-12-12T03:21:46.124Z,34.15
2022-12-12T03:24:37.677Z,34.80
2022-12-12T03:27:12.068Z,34.60
2022-12-12T03:29:44.647Z,35.47
2022-12-12T03:32:24.553Z,37.00
2022-12-12T03:34:59.827Z,36.28
2022-12-12T03:37:33.461Z,35.28
2022-12-12T03:40:11.250Z,35.95
2022-12-12T03:42:51.947Z,35.70
2022-12-12T03:45:27.501Z,36.90
2022-12-12T03:48:04.280Z,37.95
2022-12-12T03:50:36.436Z,37.20
2022-12-12T03:53:15.419Z,37.60
2022-12-12T03:56:19.544Z,37.53
2022-12-12T03:59:03.129Z,36.85
2022-12-12T04:01:40.668Z,36.65
2022-12-12T04:04:28.488Z,35.10
2022-12-12T04:07:21.190Z,35.25
2022-12-12T04:10:06.844Z,35.70
2022-12-12T04:13:13.679Z,35.83
2022-12-12T04:16:13.639Z,35.20
2022-12-12T04:18:47.133Z,34.63
2022-12-12T04:21:46.629Z,35.30
2022-12-12T04:24:25.805Z,32.92
2022-12-12T04:27:08.404Z,33.42
2022-12-12T04:29:45.998Z,34.60
2022-12-12T04:32:34.826Z,34.03
2022-12-12T04:35:22.793Z,34.50
2022-12-12T04:37:59.997Z,35.13
2022-12-12T04:40:34.702Z,34.55
2022-12-12T04:43:25.930Z,36.33
2022-12-12T04:46:04.630Z,34.30
2022-12-12T04:48:38.624Z,34.45
2022-12-12T04:51:09.039Z,34.67
2022-12-12T04:53:41.975Z,34.97
2022-12-12T04:56:13.492Z,33.80
2022-12-12T04:58:41.381Z,33.65
2022-12-12T05:01:22.380Z,35.67
2022-12-12T05:04:02.136Z,33.33
2022-12-12T05:06:34.086Z,34.45
2022-12-12T05:09:02.156Z,33.55
2022-12-12T05:11:29.171Z,36.83
2022-12-12T05:13:56.532Z,34.92
2022-12-12T05:16:35.134Z,34.70
2022-12-12T05:19:03.227Z,34.92
2022-12-12T05:21:29.826Z,34.35
2022-12-12T05:23:57.083Z,34.65
2022-12-12T05:26:26.857Z,34.28
2022-12-12T05:28:55.172Z,34.97
2022-12-12T05:31:22.355Z,34.50
2022-12-12T05:33:49.799Z,35.15
2022-12-12T05:36:16.792Z,35.65
2022-12-12T05:38:44.521Z,34.05
2022-12-12T05:41:11.520Z,35.45
2022-12-12T05:43:38.892Z,32.65
2022-12-12T05:46:06.522Z,35.78
2022-12-12T05:48:34.341Z,33.47
2022-12-12T05:51:02.273Z,35.20
2022-12-12T05:53:30.034Z,33.78
2022-12-12T05:55:57.538Z,33.70
2022-12-12T05:58:24.888Z,32.00
2022-12-12T06:00:52.329Z,34.38
2022-12-12T06:03:19.728Z,32.85
2022-12-12T06:05:46.377Z,32.47
2022-12-12T06:08:14.346Z,32.88
2022-12-12T06:10:41.085Z,35.38
2022-12-12T06:13:08.355Z,32.78
2022-12-12T06:15:38.544Z,33.50
2022-12-12T06:18:05.928Z,32.28
2022-12-12T06:20:32.613Z,33.75
2022-12-12T06:22:59.840Z,33.25
2022-12-12T06:25:26.559Z,32.42
2022-12-12T06:27:54.020Z,32.15
2022-12-12T06:30:20.907Z,30.75
2022-12-12T06:32:48.167Z,32.17
2022-12-12T06:35:15.170Z,31.33
2022-12-12T06:37:42.588Z,31.48
2022-12-12T06:40:09.884Z,32.25
2022-12-12T06:42:37.111Z,32.20
2022-12-12T06:45:04.159Z,32.63
2022-12-12T06:47:31.626Z,30.98
2022-12-12T06:49:58.637Z,33.05
2022-12-12T06:52:25.592Z,32.67
2022-12-12T06:54:52.178Z,31.40
2022-12-12T06:57:19.441Z,33.72
2022-12-12T06:59:46.119Z,31.88
2022-12-12T07:02:13.427Z,33.72
2022-12-12T07:04:40.059Z,31.88
2022-12-12T07:07:07.289Z,32.35
2022-12-12T07:09:33.909Z,31.30
2022-12-12T07:12:01.226Z,33.25
2022-12-12T07:14:27.787Z,32.33
2022-12-12T07:16:55.429Z,32.13
2022-12-12T07:19:22.696Z,31.67
2022-12-12T07:21:50.025Z,31.63
2022-12-12T07:24:16.681Z,32.40
2022-12-12T07:26:43.989Z,33.83
2022-12-12T07:29:11.053Z,35.42
2022-12-12T07:31:38.474Z,36.17
2022-12-12T07:34:05.197Z,37.30
2022-12-12T07:36:32.556Z,33.55
2022-12-12T07:38:59.249Z,32.88
2022-12-12T07:41:26.762Z,30.75
2022-12-12T07:43:53.391Z,30.75
2022-12-12T07:46:24.077Z,30.73
2022-12-12T07:48:51.717Z,29.90
2022-12-12T07:51:19.957Z,32.10
2022-12-12T07:53:46.770Z,33.83
2022-12-12T07:56:17.826Z,32.30
2022-12-12T07:58:44.563Z,30.77
2022-12-12T08:01:20.876Z,31.58
2022-12-12T08:03:48.710Z,30.25
2022-12-12T08:06:17.168Z,33.15
2022-12-12T08:08:44.741Z,30.77
2022-12-12T08:11:14.745Z,30.05
2022-12-12T08:13:41.567Z,31.52
2022-12-12T08:16:17.094Z,32.35
2022-12-12T08:18:44.240Z,31.77
2022-12-12T08:21:13.679Z,33.35
2022-12-12T08:23:41.211Z,33.38
2022-12-12T08:26:10.625Z,35.42
2022-12-12T08:28:38.355Z,37.03
2022-12-12T08:31:05.363Z,37.60
2022-12-12T08:33:32.683Z,36.15
2022-12-12T08:35:59.530Z,36.20
2022-12-12T08:38:27.107Z,36.58
2022-12-12T08:40:53.674Z,34.70
2022-12-12T08:43:21.153Z,33.80
2022-12-12T08:45:47.926Z,38.55
2022-12-12T08:48:15.410Z,39.92
2022-12-12T08:50:42.303Z,37.35
2022-12-12T08:53:09.694Z,35.85
2022-12-12T08:55:36.395Z,34.05
2022-12-12T08:58:04.446Z,35.20
2022-12-12T09:00:31.226Z,35.63
2022-12-12T09:02:58.554Z,35.35
2022-12-12T09:05:25.172Z,36.10
2022-12-12T09:07:52.536Z,36.33
2022-12-12T09:10:19.379Z,39.00
2022-12-12T09:12:46.776Z,37.85
2022-12-12T09:15:14.423Z,35.65
2022-12-12T09:17:41.983Z,34.42
2022-12-12T09:20:09.283Z,35.58
2022-12-12T09:22:36.559Z,32.60
2022-12-12T09:25:04.495Z,35.53
2022-12-12T09:27:32.260Z,35.50
2022-12-12T09:29:59.189Z,34.70
2022-12-12T09:32:26.552Z,34.20
2022-12-12T09:34:53.215Z,36.72
2022-12-12T09:37:20.556Z,34.00
2022-12-12T09:39:47.165Z,35.95
2022-12-12T09:42:27.757Z,36.38
2022-12-12T09:45:00.064Z,35.22
2022-12-12T09:47:45.032Z,35.33
2022-12-12T09:50:18.963Z,36.85
2022-12-12T09:52:45.789Z,36.63
2022-12-12T09:55:31.177Z,34.97
2022-12-12T09:58:03.770Z,33.25
2022-12-12T10:00:36.367Z,34.22
2022-12-12T10:03:09.425Z,37.35
2022-12-12T10:06:20.667Z,34.72
2022-12-12T10:08:53.183Z,32.85
2022-12-12T10:11:54.824Z,32.50
2022-12-12T10:14:38.493Z,33.40
2022-12-12T10:17:23.591Z,34.13
2022-12-12T10:19:53.852Z,34.05
2022-12-12T10:22:43.283Z,32.60
2022-12-12T10:25:25.268Z,32.42
2022-12-12T10:28:12.006Z,27.83
2022-12-12T10:31:12.417Z,28.08
2022-12-12T10:34:20.900Z,27.90
2022-12-12T10:37:09.973Z,25.85
2022-12-12T10:40:05.108Z,27.90
2022-12-12T10:42:54.268Z,27.50
2022-12-12T10:45:48.668Z,26.42
2022-12-12T10:48:16.427Z,29.45
2022-12-12T10:50:48.785Z,26.70
2022-12-12T10:53:15.697Z,27.52
2022-12-12T10:56:04.301Z,28.73
2022-12-12T10:58:42.427Z,28.83
2022-12-12T11:01:12.909Z,29.80
2022-12-12T11:03:44.895Z,30.00
2022-12-12T11:06:15.821Z,29.63
2022-12-12T11:08:54.959Z,31.50
2022-12-12T11:11:28.045Z,30.10
2022-12-12T11:16:28.202Z,29.10
2022-12-12T11:19:18.172Z,28.00
2022-12-12T11:21:46.532Z,26.70
2022-12-12T11:24:16.270Z,29.15
2022-12-12T11:26:58.682Z,28.98
2022-12-12T11:29:44.598Z,29.27
2022-12-12T11:32:19.429Z,28.55
2022-12-12T11:34:51.241Z,26.92
2022-12-12T11:37:21.994Z,27.17
2022-12-12T11:39:53.702Z,27.52
2022-12-12T11:42:25.829Z,26.38
2022-12-12T11:45:03.451Z,25.90
2022-12-12T11:47:38.839Z,25.92
2022-12-12T11:50:26.974Z,26.42
2022-12-12T11:53:01.857Z,25.77
2022-12-12T11:55:45.590Z,25.20
2022-12-12T11:58:28.379Z,24.55
2022-12-12T12:01:21.758Z,24.45
2022-12-12T12:06:47.471Z,24.02
2022-12-12T12:09:28.865Z,23.02
2022-12-12T12:12:01.675Z,23.27
2022-12-12T12:14:40.283Z,22.88
2022-12-12T12:17:49.823Z,21.73
2022-12-12T12:20:47.688Z,22.42
2022-12-12T12:23:42.542Z,19.83
2022-12-12T12:26:32.447Z,20.20
2022-12-12T12:29:37.400Z,19.80
2022-12-12T12:32:30.324Z,18.17
2022-12-12T12:35:31.887Z,18.98
2022-12-12T12:38:02.148Z,18.10
2022-12-12T12:41:04.665Z,17.80
2022-12-12T12:43:59.650Z,16.63
2022-12-12T12:46:37.247Z,17.48
2022-12-12T12:49:47.208Z,18.23
2022-12-12T12:52:28.021Z,18.05
2022-12-12T12:54:58.131Z,17.27
2022-12-12T12:57:34.599Z,17.50
2022-12-12T13:00:15.843Z,16.20
2022-12-12T13:02:56.687Z,15.77
2022-12-12T13:05:41.562Z,15.75
2022-12-12T13:08:32.356Z,14.63
2022-12-12T13:11:06.557Z,15.13
2022-12-12T13:13:37.078Z,16.35
2022-12-12T13:16:12.802Z,15.10
2022-12-12T13:18:45.509Z,15.75
2022-12-12T13:21:40.798Z,15.40
2022-12-12T13:24:41.364Z,15.25
2022-12-12T13:27:26.499Z,15.00
2022-12-12T13:30:00.799Z,15.20
2022-12-12T13:32:52.284Z,17.70
2022-12-12T13:35:28.836Z,17.15
2022-12-12T13:37:57.019Z,16.13
2022-12-12T13:40:25.246Z,19.25
2022-12-12T13:42:57.521Z,20.58
2022-12-12T13:45:33.575Z,17.77
2022-12-12T13:48:03.930Z,17.88
2022-12-12T13:50:30.904Z,18.13
2022-12-12T13:53:07.216Z,17.77
2022-12-12T13:55:42.884Z,18.05
2022-12-12T13:58:17.433Z,18.42
2022-12-12T14:00:45.124Z,20.38
2022-12-12T14:03:12.642Z,18.17
2022-12-12T14:05:48.093Z,17.70
2022-12-12T14:08:15.425Z,16.60
2022-12-12T14:10:50.438Z,17.33
2022-12-12T14:13:23.279Z,18.50
2022-12-12T14:15:59.438Z,19.67
2022-12-12T14:18:30.859Z,18.13
2022-12-12T14:21:08.021Z,17.17
2022-12-12T14:23:56.398Z,19.90
2022-12-12T14:26:29.242Z,19.10
2022-12-12T14:29:17.931Z,18.60
2022-12-12T14:32:01.229Z,18.38
2022-12-12T14:34:34.542Z,18.70
2022-12-12T14:37:18.999Z,17.92
2022-12-12T14:40:16.750Z,23.38
2022-12-12T14:43:16.455Z,18.65
2022-12-12T14:45:49.695Z,18.90
2022-12-12T14:48:25.551Z,17.15
2022-12-12T14:51:09.255Z,16.58
2022-12-12T14:53:43.811Z,18.75
2022-12-12T14:56:56.107Z,17.02
2022-12-12T14:59:38.068Z,19.08
2022-12-12T15:02:38.726Z,17.65
2022-12-12T15:05:07.976Z,17.35
2022-12-12T15:07:38.514Z,17.10
2022-12-12T15:10:26.387Z,17.73
2022-12-12T15:12:53.269Z,19.15
2022-12-12T15:15:27.603Z,18.23
2022-12-12T15:17:56.834Z,19.83
2022-12-12T15:20:30.167Z,21.60
2022-12-12T15:22:58.506Z,22.20
2022-12-12T15:25:32.646Z,22.27
2022-12-12T15:28:01.885Z,24.33
2022-12-12T15:30:40.565Z,24.60
2022-12-12T15:33:19.758Z,23.10
2022-12-12T15:35:50.466Z,21.38
2022-12-12T15:38:17.665Z,23.30
2022-12-12T15:40:49.978Z,22.02
2022-12-12T15:43:20.722Z,24.48
2022-12-12T15:46:13.848Z,22.27
2022-12-12T15:48:45.450Z,22.55
2022-12-12T15:51:13.280Z,21.92
2022-12-12T15:53:46.045Z,21.13
2022-12-12T15:56:24.154Z,20.23
2022-12-12T15:59:05.182Z,21.75
2022-12-12T16:01:31.972Z,23.35
2022-12-12T16:04:12.006Z,24.88
2022-12-12T16:06:46.487Z,22.90
2022-12-12T16:09:26.716Z,22.48
2022-12-12T16:11:57.393Z,22.70
2022-12-12T16:14:42.362Z,22.42
2022-12-12T16:17:23.422Z,24.20
2022-12-12T16:20:04.301Z,24.02
2022-12-12T16:22:39.464Z,24.45
2022-12-12T16:25:16.743Z,23.38
2022-12-12T16:27:44.748Z,21.55
2022-12-12T16:30:14.365Z,22.27
2022-12-12T16:32:41.932Z,27.52
2022-12-12T16:35:17.473Z,25.17
2022-12-12T16:37:44.372Z,40.22
2022-12-12T16:40:16.546Z,46.70
2022-12-12T16:42:54.493Z,60.65
2022-12-12T16:45:21.336Z,54.92
2022-12-12T16:47:47.997Z,47.03
2022-12-12T16:50:14.946Z,54.08
2022-12-12T16:52:41.694Z,66.22
2022-12-12T16:55:20.716Z,87.43
2022-12-12T16:57:48.629Z,119.45
2022-12-12T17:00:16.702Z,99.15
2022-12-12T17:02:44.161Z,64.47
2022-12-12T17:05:20.826Z,37.40
2022-12-12T17:07:47.736Z,28.85
2022-12-12T17:10:14.881Z,23.80
2022-12-12T17:12:41.601Z,21.80
2022-12-12T17:15:21.269Z,19.17
2022-12-12T17:17:47.870Z,21.00
2022-12-12T17:20:14.814Z,22.50
2022-12-12T17:22:42.189Z,23.88
2022-12-12T17:25:09.415Z,44.08
2022-12-12T17:27:36.501Z,41.85
2022-12-12T17:30:05.179Z,45.60
2022-12-12T17:32:31.819Z,54.78
2022-12-12T17:34:58.925Z,52.67
2022-12-12T17:37:25.783Z,38.13
2022-12-12T17:39:52.849Z,25.63
2022-12-12T17:42:19.531Z,26.00
2022-12-12T17:44:46.487Z,26.30
2022-12-12T17:47:13.076Z,27.13
2022-12-12T17:49:40.368Z,32.33
2022-12-12T17:52:06.970Z,31.38
2022-12-12T17:54:35.176Z,32.75
2022-12-12T17:57:01.788Z,30.38
2022-12-12T17:59:28.975Z,28.60
2022-12-12T18:01:55.623Z,28.70
2022-12-12T18:04:28.065Z,27.80
2022-12-12T18:06:55.369Z,27.10
2022-12-12T18:09:22.483Z,26.55
2022-12-12T18:11:49.190Z,23.50
2022-12-12T18:14:18.740Z,25.60
2022-12-12T18:16:53.106Z,25.77
2022-12-12T18:19:22.630Z,23.75
2022-12-12T18:22:00.875Z,21.83
2022-12-12T18:24:33.235Z,25.20
2022-12-12T18:27:01.111Z,25.65
2022-12-12T18:29:28.563Z,43.45
2022-12-12T18:31:55.347Z,35.30
2022-12-12T18:34:22.151Z,30.85
2022-12-12T18:36:49.630Z,27.00
2022-12-12T18:39:17.367Z,31.60
2022-12-12T18:41:44.043Z,39.63
2022-12-12T18:44:13.776Z,41.55
2022-12-12T18:46:43.650Z,32.08
2022-12-12T18:49:15.424Z,26.38
2022-12-12T18:51:43.642Z,68.13
2022-12-12T18:54:15.368Z,52.33
2022-12-12T18:56:43.028Z,37.50
2022-12-12T18:59:10.402Z,47.88
2022-12-12T19:01:38.644Z,74.28
2022-12-12T19:04:13.152Z,84.88
2022-12-12T19:06:42.985Z,59.40
2022-12-12T19:09:16.883Z,55.90
2022-12-12T19:11:44.232Z,40.72
2022-12-12T19:14:13.552Z,34.33
2022-12-12T19:16:40.653Z,31.05
2022-12-12T19:19:09.871Z,30.75
2022-12-12T19:21:38.287Z,29.33
2022-12-12T19:24:09.430Z,29.88
2022-12-12T19:26:37.218Z,27.58
2022-12-12T19:29:08.192Z,27.88
2022-12-12T19:31:35.992Z,29.88
2022-12-12T19:34:05.201Z,30.95
2022-12-12T19:36:32.304Z,28.90
2022-12-12T19:39:04.057Z,30.75
2022-12-12T19:41:30.712Z,29.45
2022-12-12T19:44:01.856Z,30.55
2022-12-12T19:46:30.992Z,30.83
2022-12-12T19:49:03.173Z,32.38
2022-12-12T19:51:32.510Z,32.10
2022-12-12T19:54:00.720Z,35.50
2022-12-12T19:56:33.692Z,33.45
2022-12-12T19:59:01.860Z,33.97
2022-12-12T20:01:31.076Z,35.95
2022-12-12T20:04:07.142Z,33.95
2022-12-12T20:06:41.018Z,32.30
2022-12-12T20:09:09.603Z,32.35
2022-12-12T20:11:37.201Z,34.28
2022-12-12T20:14:04.895Z,35.33
2022-12-12T20:16:31.626Z,35.55
2022-12-12T20:18:59.619Z,32.85
2022-12-12T20:21:59.648Z,35.17
2022-12-12T20:24:16.404Z,34.78
2022-12-12T20:26:43.253Z,35.72
2022-12-12T20:29:12.538Z,34.67
2022-12-12T20:31:48.327Z,35.70
2022-12-12T20:34:17.948Z,35.97
2022-12-12T20:36:44.703Z,36.55
2022-12-12T20:39:19.495Z,39.78
2022-12-12T20:41:46.379Z,38.30
2022-12-12T20:44:14.487Z,39.83
2022-12-12T20:46:44.155Z,39.75
2022-12-12T20:49:15.468Z,38.83
2022-12-12T20:51:58.661Z,41.78
2022-12-12T20:54:28.017Z,41.75
2022-12-12T20:56:54.952Z,39.72
2022-12-12T20:59:22.756Z,40.13
2022-12-12T21:01:49.820Z,43.40
2022-12-12T21:04:16.545Z,41.22
2022-12-12T21:06:48.623Z,39.08
2022-12-12T21:09:23.251Z,43.17
2022-12-12T21:11:52.968Z,41.13
2022-12-12T21:14:20.035Z,42.58
2022-12-12T21:16:46.738Z,39.45
2022-12-12T21:19:14.406Z,39.15
2022-12-12T21:21:43.709Z,38.80
2022-12-12T21:24:15.245Z,39.50
2022-12-12T21:26:43.116Z,28.85
2022-12-12T21:29:10.017Z,38.05
2022-12-12T21:31:42.342Z,38.03
2022-12-12T21:34:13.736Z,40.45
2022-12-12T21:36:40.393Z,41.60
2022-12-12T21:39:07.999Z,40.20
2022-12-12T21:41:35.494Z,41.75
2022-12-12T21:44:02.212Z,40.13
2022-12-12T21:46:29.977Z,40.38
2022-12-12T21:49:35.894Z,40.90
2022-12-12T21:52:06.126Z,40.42
2022-12-12T21:54:33.977Z,38.85
2022-12-12T21:57:01.747Z,41.13
2022-12-12T21:59:30.057Z,40.97
2022-12-12T22:01:58.915Z,40.35
2022-12-12T22:04:26.760Z,41.17
2022-12-12T22:06:53.423Z,40.83
2022-12-12T22:09:20.786Z,41.88
2022-12-12T22:11:48.923Z,44.70
2022-12-12T22:14:20.234Z,43.45
2022-12-12T22:16:46.899Z,42.00
2022-12-12T22:19:15.888Z,41.58
2022-12-12T22:21:46.136Z,41.25
2022-12-12T22:24:14.165Z,37.47
2022-12-12T22:26:43.976Z,36.85
2022-12-12T22:29:14.345Z,37.30
2022-12-12T22:31:41.726Z,40.92
2022-12-12T22:34:19.007Z,39.38
2022-12-12T22:36:46.600Z,38.63
2022-12-12T22:39:17.425Z,39.90
2022-12-12T22:41:44.886Z,39.70
2022-12-12T22:44:15.140Z,39.00
2022-12-12T22:46:44.228Z,37.85
2022-12-12T22:49:14.189Z,38.35
2022-12-12T22:51:41.405Z,36.92
2022-12-12T22:54:08.554Z,35.53
2022-12-12T22:56:37.636Z,36.80
2022-12-12T22:59:05.966Z,35.70
2022-12-12T23:01:33.294Z,36.17
2022-12-12T23:04:00.734Z,39.13
2022-12-12T23:06:33.343Z,37.55
2022-12-12T23:09:03.475Z,38.08
2022-12-12T23:11:30.772Z,36.72
2022-12-12T23:14:06.839Z,35.15
2022-12-12T23:16:35.514Z,35.83
2022-12-12T23:19:05.022Z,35.80
2022-12-12T23:21:32.407Z,36.55
2022-12-12T23:23:59.507Z,35.33
2022-12-12T23:26:29.825Z,34.15
2022-12-12T23:28:58.983Z,35.65
2022-12-12T23:31:28.584Z,36.33
2022-12-12T23:33:57.646Z,33.53
2022-12-12T23:36:26.088Z,34.72
2022-12-12T23:39:01.364Z,36.58
2022-12-12T23:41:28.668Z,36.75
2022-12-12T23:43:56.516Z,35.33
2022-12-12T23:46:31.673Z,34.38
2022-12-12T23:49:01.690Z,35.95
2022-12-12T23:51:30.966Z,35.95
2022-12-12T23:54:00.091Z,35.92
2022-12-12T23:56:27.562Z,35.22
2022-12-12T23:58:56.560Z,35.40
